sensor_id;sensor_type;location;lat;lon;timestamp;temperature;humidity
8436;DHT22;4255;48.730;9.156;2023-03-14T00:03:36;9.90;99.90
8436;DHT22;4255;48.730;9.156;2023-03-14T00:06:03;10.00;99.90
8436;DHT22;4255;48.730;9.156;2023-03-14T00:08:28;9.90;99.90
8436;DHT22;4255;48.730;9.156;2023-03-14T00:10:54;9.90;99.90
8436;DHT22;4255;48.730;9.156;2023-03-14T00:13:19;10.00;99.90
8436;DHT22;4255;48.730;9.156;2023-03-14T00:15:45;10.00;99.90
8436;DHT22;4255;48.730;9.156;2023-03-14T00:18:10;10.20;99.90
8436;DHT22;4255;48.730;9.156;2023-03-14T00:20:36;10.20;99.90
8436;DHT22;4255;48.730;9.156;2023-03-14T00:23:02;10.10;99.90
8436;DHT22;4255;48.730;9.156;2023-03-14T00:25:27;10.10;99.90
8436;DHT22;4255;48.730;9.156;2023-03-14T00:27:53;10.10;99.90
8436;DHT22;4255;48.730;9.156;2023-03-14T00:30:19;10.30;99.90
8436;DHT22;4255;48.730;9.156;2023-03-14T00:32:45;10.20;99.90
8436;DHT22;4255;48.730;9.156;2023-03-14T00:35:10;10.30;99.90
8436;DHT22;4255;48.730;9.156;2023-03-14T00:37:36;10.30;99.90
8436;DHT22;4255;48.730;9.156;2023-03-14T00:40:02;10.30;99.90
8436;DHT22;4255;48.730;9.156;2023-03-14T00:42:31;10.30;99.90
8436;DHT22;4255;48.730;9.156;2023-03-14T00:44:57;10.20;99.90
8436;DHT22;4255;48.730;9.156;2023-03-14T00:47:22;10.20;99.90
8436;DHT22;4255;48.730;9.156;2023-03-14T00:49:48;10.30;99.90
8436;DHT22;4255;48.730;9.156;2023-03-14T00:52:14;10.30;99.90
8436;DHT22;4255;48.730;9.156;2023-03-14T00:54:39;10.40;99.90
8436;DHT22;4255;48.730;9.156;2023-03-14T00:57:05;10.40;99.90
8436;DHT22;4255;48.730;9.156;2023-03-14T00:59:31;10.30;99.90
8436;DHT22;4255;48.730;9.156;2023-03-14T01:01:56;10.30;99.90
8436;DHT22;4255;48.730;9.156;2023-03-14T01:04:22;10.20;99.90
8436;DHT22;4255;48.730;9.156;2023-03-14T01:06:48;10.20;99.90
8436;DHT22;4255;48.730;9.156;2023-03-14T01:09:14;10.30;99.90
8436;DHT22;4255;48.730;9.156;2023-03-14T01:11:39;10.40;99.90
8436;DHT22;4255;48.730;9.156;2023-03-14T01:14:05;10.40;99.90
8436;DHT22;4255;48.730;9.156;2023-03-14T01:16:33;10.40;99.90
8436;DHT22;4255;48.730;9.156;2023-03-14T01:18:59;10.40;99.90
8436;DHT22;4255;48.730;9.156;2023-03-14T01:21:28;10.40;99.90
8436;DHT22;4255;48.730;9.156;2023-03-14T01:23:56;10.40;99.90
8436;DHT22;4255;48.730;9.156;2023-03-14T01:26:24;10.40;99.90
8436;DHT22;4255;48.730;9.156;2023-03-14T01:28:52;10.40;99.90
8436;DHT22;4255;48.730;9.156;2023-03-14T01:31:18;10.40;99.90
8436;DHT22;4255;48.730;9.156;2023-03-14T01:33:44;10.50;99.90
8436;DHT22;4255;48.730;9.156;2023-03-14T01:36:10;10.60;99.90
8436;DHT22;4255;48.730;9.156;2023-03-14T01:38:38;10.60;99.90
8436;DHT22;4255;48.730;9.156;2023-03-14T01:41:04;10.70;99.90
8436;DHT22;4255;48.730;9.156;2023-03-14T01:43:31;10.50;99.90
8436;DHT22;4255;48.730;9.156;2023-03-14T01:50:59;10.40;99.90
8436;DHT22;4255;48.730;9.156;2023-03-14T01:53:26;10.30;99.90
8436;DHT22;4255;48.730;9.156;2023-03-14T01:55:53;10.10;99.90
8436;DHT22;4255;48.730;9.156;2023-03-14T01:58:22;10.10;99.90
8436;DHT22;4255;48.730;9.156;2023-03-14T02:00:48;10.10;99.90
8436;DHT22;4255;48.730;9.156;2023-03-14T02:03:17;10.00;99.90
8436;DHT22;4255;48.730;9.156;2023-03-14T02:05:46;10.00;99.90
8436;DHT22;4255;48.730;9.156;2023-03-14T02:08:17;10.10;99.90
8436;DHT22;4255;48.730;9.156;2023-03-14T02:10:47;10.10;99.90
8436;DHT22;4255;48.730;9.156;2023-03-14T02:13:14;10.10;99.90
8436;DHT22;4255;48.730;9.156;2023-03-14T02:15:41;10.00;99.90
8436;DHT22;4255;48.730;9.156;2023-03-14T02:18:07;10.10;99.90
8436;DHT22;4255;48.730;9.156;2023-03-14T02:23:36;9.90;99.90
8436;DHT22;4255;48.730;9.156;2023-03-14T02:26:15;9.90;99.90
8436;DHT22;4255;48.730;9.156;2023-03-14T02:28:42;10.00;99.90
8436;DHT22;4255;48.730;9.156;2023-03-14T02:31:07;10.10;99.90
8436;DHT22;4255;48.730;9.156;2023-03-14T02:33:35;10.10;99.90
8436;DHT22;4255;48.730;9.156;2023-03-14T02:36:05;10.10;99.90
8436;DHT22;4255;48.730;9.156;2023-03-14T02:38:47;9.90;99.90
8436;DHT22;4255;48.730;9.156;2023-03-14T02:41:16;10.00;99.90
8436;DHT22;4255;48.730;9.156;2023-03-14T02:43:42;10.00;99.90
8436;DHT22;4255;48.730;9.156;2023-03-14T02:46:10;10.00;99.90
8436;DHT22;4255;48.730;9.156;2023-03-14T02:48:45;10.00;99.90
8436;DHT22;4255;48.730;9.156;2023-03-14T02:51:13;10.10;99.90
8436;DHT22;4255;48.730;9.156;2023-03-14T02:53:39;10.00;99.90
8436;DHT22;4255;48.730;9.156;2023-03-14T02:56:07;9.90;99.90
8436;DHT22;4255;48.730;9.156;2023-03-14T02:58:33;9.90;99.90
8436;DHT22;4255;48.730;9.156;2023-03-14T03:00:58;9.90;99.90
8436;DHT22;4255;48.730;9.156;2023-03-14T03:03:24;9.80;99.90
8436;DHT22;4255;48.730;9.156;2023-03-14T03:05:50;9.70;99.90
8436;DHT22;4255;48.730;9.156;2023-03-14T03:08:20;9.70;99.90
8436;DHT22;4255;48.730;9.156;2023-03-14T03:10:46;9.80;99.90
8436;DHT22;4255;48.730;9.156;2023-03-14T03:13:12;9.70;99.90
8436;DHT22;4255;48.730;9.156;2023-03-14T03:15:38;9.70;99.90
8436;DHT22;4255;48.730;9.156;2023-03-14T03:18:03;9.60;99.90
8436;DHT22;4255;48.730;9.156;2023-03-14T03:20:29;9.50;99.90
8436;DHT22;4255;48.730;9.156;2023-03-14T03:22:55;9.60;99.90
8436;DHT22;4255;48.730;9.156;2023-03-14T03:25:20;9.60;99.90
8436;DHT22;4255;48.730;9.156;2023-03-14T03:27:46;9.50;99.90
8436;DHT22;4255;48.730;9.156;2023-03-14T03:30:12;9.50;99.90
8436;DHT22;4255;48.730;9.156;2023-03-14T03:32:37;9.50;99.90
8436;DHT22;4255;48.730;9.156;2023-03-14T03:35:04;9.50;99.90
8436;DHT22;4255;48.730;9.156;2023-03-14T03:37:31;9.50;99.90
8436;DHT22;4255;48.730;9.156;2023-03-14T03:39:56;9.50;99.90
8436;DHT22;4255;48.730;9.156;2023-03-14T03:42:22;9.50;99.90
8436;DHT22;4255;48.730;9.156;2023-03-14T03:44:47;9.50;99.90
8436;DHT22;4255;48.730;9.156;2023-03-14T03:47:13;9.40;99.90
8436;DHT22;4255;48.730;9.156;2023-03-14T03:49:39;9.40;99.90
8436;DHT22;4255;48.730;9.156;2023-03-14T03:52:05;9.40;99.90
8436;DHT22;4255;48.730;9.156;2023-03-14T03:54:30;9.40;99.90
8436;DHT22;4255;48.730;9.156;2023-03-14T03:56:56;9.30;99.90
8436;DHT22;4255;48.730;9.156;2023-03-14T03:59:21;9.40;99.90
8436;DHT22;4255;48.730;9.156;2023-03-14T04:01:47;9.50;99.90
8436;DHT22;4255;48.730;9.156;2023-03-14T04:04:13;9.30;99.90
8436;DHT22;4255;48.730;9.156;2023-03-14T04:06:39;9.30;99.90
8436;DHT22;4255;48.730;9.156;2023-03-14T04:09:07;9.20;99.90
8436;DHT22;4255;48.730;9.156;2023-03-14T04:11:33;9.30;99.90
8436;DHT22;4255;48.730;9.156;2023-03-14T04:13:59;9.30;99.90
8436;DHT22;4255;48.730;9.156;2023-03-14T04:16:25;9.30;99.90
8436;DHT22;4255;48.730;9.156;2023-03-14T04:18:51;9.20;99.90
8436;DHT22;4255;48.730;9.156;2023-03-14T04:21:17;9.20;99.90
8436;DHT22;4255;48.730;9.156;2023-03-14T04:23:43;9.20;99.90
8436;DHT22;4255;48.730;9.156;2023-03-14T04:26:09;9.20;99.90
8436;DHT22;4255;48.730;9.156;2023-03-14T04:28:34;9.20;99.90
8436;DHT22;4255;48.730;9.156;2023-03-14T04:31:22;9.20;99.90
8436;DHT22;4255;48.730;9.156;2023-03-14T04:33:48;9.20;99.90
8436;DHT22;4255;48.730;9.156;2023-03-14T04:36:14;9.20;99.90
8436;DHT22;4255;48.730;9.156;2023-03-14T04:38:40;9.20;99.90
8436;DHT22;4255;48.730;9.156;2023-03-14T04:41:06;9.20;99.90
8436;DHT22;4255;48.730;9.156;2023-03-14T04:43:32;9.10;99.90
8436;DHT22;4255;48.730;9.156;2023-03-14T04:45:59;9.10;99.90
8436;DHT22;4255;48.730;9.156;2023-03-14T04:48:25;9.10;99.90
8436;DHT22;4255;48.730;9.156;2023-03-14T04:50:51;9.00;99.90
8436;DHT22;4255;48.730;9.156;2023-03-14T04:53:17;9.10;99.90
8436;DHT22;4255;48.730;9.156;2023-03-14T04:55:54;9.00;99.90
8436;DHT22;4255;48.730;9.156;2023-03-14T04:58:20;9.00;99.90
8436;DHT22;4255;48.730;9.156;2023-03-14T05:00:46;9.00;99.90
8436;DHT22;4255;48.730;9.156;2023-03-14T05:03:14;9.10;99.90
8436;DHT22;4255;48.730;9.156;2023-03-14T05:05:40;9.20;99.90
8436;DHT22;4255;48.730;9.156;2023-03-14T05:08:06;9.10;99.90
8436;DHT22;4255;48.730;9.156;2023-03-14T05:10:31;9.00;99.90
8436;DHT22;4255;48.730;9.156;2023-03-14T05:12:57;9.00;99.90
8436;DHT22;4255;48.730;9.156;2023-03-14T05:15:23;8.90;99.90
8436;DHT22;4255;48.730;9.156;2023-03-14T05:17:48;9.10;99.90
8436;DHT22;4255;48.730;9.156;2023-03-14T05:20:14;9.00;99.90
8436;DHT22;4255;48.730;9.156;2023-03-14T05:22:41;9.10;99.90
8436;DHT22;4255;48.730;9.156;2023-03-14T05:25:08;9.20;99.90
8436;DHT22;4255;48.730;9.156;2023-03-14T05:27:34;9.10;99.90
8436;DHT22;4255;48.730;9.156;2023-03-14T05:30:00;9.10;99.90
8436;DHT22;4255;48.730;9.156;2023-03-14T05:32:26;9.20;99.90
8436;DHT22;4255;48.730;9.156;2023-03-14T05:34:52;9.20;99.90
8436;DHT22;4255;48.730;9.156;2023-03-14T05:37:17;9.20;99.90
8436;DHT22;4255;48.730;9.156;2023-03-14T05:39:43;9.30;99.90
8436;DHT22;4255;48.730;9.156;2023-03-14T05:42:09;9.40;99.90
8436;DHT22;4255;48.730;9.156;2023-03-14T05:44:34;9.30;99.90
8436;DHT22;4255;48.730;9.156;2023-03-14T05:47:00;9.30;99.90
8436;DHT22;4255;48.730;9.156;2023-03-14T05:49:25;9.30;99.90
8436;DHT22;4255;48.730;9.156;2023-03-14T05:51:51;9.30;99.90
8436;DHT22;4255;48.730;9.156;2023-03-14T05:54:17;9.20;99.90
8436;DHT22;4255;48.730;9.156;2023-03-14T05:56:42;9.20;99.90
8436;DHT22;4255;48.730;9.156;2023-03-14T05:59:08;9.30;99.90
8436;DHT22;4255;48.730;9.156;2023-03-14T06:01:35;9.30;99.90
8436;DHT22;4255;48.730;9.156;2023-03-14T06:04:01;9.40;99.90
8436;DHT22;4255;48.730;9.156;2023-03-14T06:06:26;9.40;99.90
8436;DHT22;4255;48.730;9.156;2023-03-14T06:08:52;9.50;99.90
8436;DHT22;4255;48.730;9.156;2023-03-14T06:11:18;9.50;99.90
8436;DHT22;4255;48.730;9.156;2023-03-14T06:13:43;9.80;99.90
8436;DHT22;4255;48.730;9.156;2023-03-14T06:16:09;9.80;99.90
8436;DHT22;4255;48.730;9.156;2023-03-14T06:18:35;9.80;99.90
8436;DHT22;4255;48.730;9.156;2023-03-14T06:21:00;9.70;99.90
8436;DHT22;4255;48.730;9.156;2023-03-14T06:23:26;9.80;99.90
8436;DHT22;4255;48.730;9.156;2023-03-14T06:25:52;9.60;99.90
8436;DHT22;4255;48.730;9.156;2023-03-14T06:28:18;9.50;99.90
8436;DHT22;4255;48.730;9.156;2023-03-14T06:30:43;9.30;99.90
8436;DHT22;4255;48.730;9.156;2023-03-14T06:33:09;9.20;99.90
8436;DHT22;4255;48.730;9.156;2023-03-14T06:35:35;9.30;99.90
8436;DHT22;4255;48.730;9.156;2023-03-14T06:38:00;9.30;99.90
8436;DHT22;4255;48.730;9.156;2023-03-14T06:40:26;9.60;99.90
8436;DHT22;4255;48.730;9.156;2023-03-14T06:42:52;9.60;99.90
8436;DHT22;4255;48.730;9.156;2023-03-14T06:45:17;9.50;99.90
8436;DHT22;4255;48.730;9.156;2023-03-14T06:47:43;9.70;99.90
8436;DHT22;4255;48.730;9.156;2023-03-14T06:50:09;9.80;99.90
8436;DHT22;4255;48.730;9.156;2023-03-14T06:52:36;9.90;99.90
8436;DHT22;4255;48.730;9.156;2023-03-14T06:55:02;9.90;99.90
8436;DHT22;4255;48.730;9.156;2023-03-14T06:57:28;9.90;99.90
8436;DHT22;4255;48.730;9.156;2023-03-14T06:59:54;10.00;99.90
8436;DHT22;4255;48.730;9.156;2023-03-14T07:02:23;10.10;99.90
8436;DHT22;4255;48.730;9.156;2023-03-14T07:04:48;10.10;99.90
8436;DHT22;4255;48.730;9.156;2023-03-14T07:07:14;10.00;99.90
8436;DHT22;4255;48.730;9.156;2023-03-14T07:09:40;10.10;99.90
8436;DHT22;4255;48.730;9.156;2023-03-14T07:12:05;10.00;99.90
8436;DHT22;4255;48.730;9.156;2023-03-14T07:14:31;10.00;99.90
8436;DHT22;4255;48.730;9.156;2023-03-14T07:16:57;10.20;99.90
8436;DHT22;4255;48.730;9.156;2023-03-14T07:19:22;10.30;99.90
8436;DHT22;4255;48.730;9.156;2023-03-14T07:21:48;10.30;99.90
8436;DHT22;4255;48.730;9.156;2023-03-14T07:24:13;10.40;99.90
8436;DHT22;4255;48.730;9.156;2023-03-14T07:26:39;10.40;99.90
8436;DHT22;4255;48.730;9.156;2023-03-14T07:29:05;10.50;99.90
8436;DHT22;4255;48.730;9.156;2023-03-14T07:31:31;10.60;99.90
8436;DHT22;4255;48.730;9.156;2023-03-14T07:33:56;10.70;99.90
8436;DHT22;4255;48.730;9.156;2023-03-14T07:36:22;10.70;99.90
8436;DHT22;4255;48.730;9.156;2023-03-14T07:38:48;10.80;99.90
8436;DHT22;4255;48.730;9.156;2023-03-14T07:41:13;10.90;99.90
8436;DHT22;4255;48.730;9.156;2023-03-14T07:43:39;11.10;99.90
8436;DHT22;4255;48.730;9.156;2023-03-14T07:46:05;11.00;99.90
8436;DHT22;4255;48.730;9.156;2023-03-14T07:48:31;11.00;99.90
8436;DHT22;4255;48.730;9.156;2023-03-14T07:50:57;10.90;99.90
8436;DHT22;4255;48.730;9.156;2023-03-14T07:53:23;11.00;99.90
8436;DHT22;4255;48.730;9.156;2023-03-14T07:55:51;10.90;99.90
8436;DHT22;4255;48.730;9.156;2023-03-14T07:58:17;11.00;99.90
8436;DHT22;4255;48.730;9.156;2023-03-14T08:00:43;11.10;99.90
8436;DHT22;4255;48.730;9.156;2023-03-14T08:03:09;11.10;99.90
8436;DHT22;4255;48.730;9.156;2023-03-14T08:05:36;11.10;99.90
8436;DHT22;4255;48.730;9.156;2023-03-14T08:08:01;11.10;99.90
8436;DHT22;4255;48.730;9.156;2023-03-14T08:10:27;11.10;99.90
8436;DHT22;4255;48.730;9.156;2023-03-14T08:12:55;11.20;99.90
8436;DHT22;4255;48.730;9.156;2023-03-14T08:15:22;11.30;99.90
8436;DHT22;4255;48.730;9.156;2023-03-14T08:17:49;11.50;99.90
8436;DHT22;4255;48.730;9.156;2023-03-14T08:20:25;11.60;99.90
8436;DHT22;4255;48.730;9.156;2023-03-14T08:22:50;11.60;99.90
8436;DHT22;4255;48.730;9.156;2023-03-14T08:25:16;11.60;99.90
8436;DHT22;4255;48.730;9.156;2023-03-14T08:27:42;11.80;99.90
8436;DHT22;4255;48.730;9.156;2023-03-14T08:30:14;12.10;99.90
8436;DHT22;4255;48.730;9.156;2023-03-14T08:32:40;12.10;99.90
8436;DHT22;4255;48.730;9.156;2023-03-14T08:35:06;12.10;99.90
8436;DHT22;4255;48.730;9.156;2023-03-14T08:37:32;12.20;99.90
8436;DHT22;4255;48.730;9.156;2023-03-14T08:39:58;12.30;99.90
8436;DHT22;4255;48.730;9.156;2023-03-14T08:42:24;12.20;99.90
8436;DHT22;4255;48.730;9.156;2023-03-14T08:44:51;12.40;99.90
8436;DHT22;4255;48.730;9.156;2023-03-14T08:47:17;12.60;99.90
8436;DHT22;4255;48.730;9.156;2023-03-14T08:49:42;12.70;99.90
8436;DHT22;4255;48.730;9.156;2023-03-14T08:52:08;12.70;99.90
8436;DHT22;4255;48.730;9.156;2023-03-14T08:54:34;12.60;99.90
8436;DHT22;4255;48.730;9.156;2023-03-14T08:56:59;12.50;99.90
8436;DHT22;4255;48.730;9.156;2023-03-14T08:59:25;12.30;99.90
8436;DHT22;4255;48.730;9.156;2023-03-14T09:01:50;12.50;99.90
8436;DHT22;4255;48.730;9.156;2023-03-14T09:04:16;12.60;99.90
8436;DHT22;4255;48.730;9.156;2023-03-14T09:06:42;12.40;99.90
8436;DHT22;4255;48.730;9.156;2023-03-14T09:09:08;12.40;99.90
8436;DHT22;4255;48.730;9.156;2023-03-14T09:11:34;12.40;99.90
8436;DHT22;4255;48.730;9.156;2023-03-14T09:14:00;12.20;99.90
8436;DHT22;4255;48.730;9.156;2023-03-14T09:16:25;12.00;99.90
8436;DHT22;4255;48.730;9.156;2023-03-14T09:18:51;11.80;99.90
8436;DHT22;4255;48.730;9.156;2023-03-14T09:21:20;11.80;99.90
8436;DHT22;4255;48.730;9.156;2023-03-14T09:23:46;11.80;99.90
8436;DHT22;4255;48.730;9.156;2023-03-14T09:26:12;11.90;99.90
8436;DHT22;4255;48.730;9.156;2023-03-14T09:28:37;12.00;99.90
8436;DHT22;4255;48.730;9.156;2023-03-14T09:31:07;12.20;99.90
8436;DHT22;4255;48.730;9.156;2023-03-14T09:33:34;12.40;99.90
8436;DHT22;4255;48.730;9.156;2023-03-14T09:36:00;12.50;99.90
8436;DHT22;4255;48.730;9.156;2023-03-14T09:38:26;12.60;99.90
8436;DHT22;4255;48.730;9.156;2023-03-14T09:40:53;12.60;99.90
8436;DHT22;4255;48.730;9.156;2023-03-14T09:43:19;12.60;99.90
8436;DHT22;4255;48.730;9.156;2023-03-14T09:45:48;12.60;99.90
8436;DHT22;4255;48.730;9.156;2023-03-14T09:48:17;12.40;99.90
8436;DHT22;4255;48.730;9.156;2023-03-14T09:50:54;12.40;99.90
8436;DHT22;4255;48.730;9.156;2023-03-14T09:53:24;12.10;99.90
8436;DHT22;4255;48.730;9.156;2023-03-14T09:55:51;12.00;99.90
8436;DHT22;4255;48.730;9.156;2023-03-14T09:58:23;11.80;99.90
8436;DHT22;4255;48.730;9.156;2023-03-14T10:00:52;11.80;99.90
8436;DHT22;4255;48.730;9.156;2023-03-14T10:03:25;11.80;99.90
8436;DHT22;4255;48.730;9.156;2023-03-14T10:05:51;11.90;99.90
8436;DHT22;4255;48.730;9.156;2023-03-14T10:08:18;12.00;99.90
8436;DHT22;4255;48.730;9.156;2023-03-14T10:10:43;12.10;99.90
8436;DHT22;4255;48.730;9.156;2023-03-14T10:13:18;12.50;99.90
8436;DHT22;4255;48.730;9.156;2023-03-14T10:15:51;12.70;99.90
8436;DHT22;4255;48.730;9.156;2023-03-14T10:18:16;12.90;99.90
8436;DHT22;4255;48.730;9.156;2023-03-14T10:20:47;13.20;99.90
8436;DHT22;4255;48.730;9.156;2023-03-14T10:25:48;13.40;99.90
8436;DHT22;4255;48.730;9.156;2023-03-14T10:28:26;13.60;99.90
8436;DHT22;4255;48.730;9.156;2023-03-14T10:30:52;13.70;99.90
8436;DHT22;4255;48.730;9.156;2023-03-14T10:33:26;13.70;99.90
8436;DHT22;4255;48.730;9.156;2023-03-14T10:36:03;13.50;99.90
8436;DHT22;4255;48.730;9.156;2023-03-14T10:38:35;13.20;99.90
8436;DHT22;4255;48.730;9.156;2023-03-14T10:41:01;13.20;99.90
8436;DHT22;4255;48.730;9.156;2023-03-14T10:43:35;13.40;99.90
8436;DHT22;4255;48.730;9.156;2023-03-14T10:46:09;13.70;99.90
8436;DHT22;4255;48.730;9.156;2023-03-14T10:48:36;13.50;99.90
8436;DHT22;4255;48.730;9.156;2023-03-14T10:51:18;13.50;99.90
8436;DHT22;4255;48.730;9.156;2023-03-14T10:56:26;13.10;99.90
8436;DHT22;4255;48.730;9.156;2023-03-14T10:58:56;12.70;99.90
8436;DHT22;4255;48.730;9.156;2023-03-14T11:07:38;12.00;99.90
8436;DHT22;4255;48.730;9.156;2023-03-14T11:12:45;12.00;99.90
8436;DHT22;4255;48.730;9.156;2023-03-14T11:20:53;12.20;99.90
8436;DHT22;4255;48.730;9.156;2023-03-14T11:23:23;12.30;99.90
8436;DHT22;4255;48.730;9.156;2023-03-14T11:25:57;12.20;99.90
8436;DHT22;4255;48.730;9.156;2023-03-14T11:28:39;12.10;99.90
8436;DHT22;4255;48.730;9.156;2023-03-14T11:31:20;12.00;99.90
8436;DHT22;4255;48.730;9.156;2023-03-14T11:37:00;11.80;99.90
8436;DHT22;4255;48.730;9.156;2023-03-14T11:39:34;11.80;99.90
8436;DHT22;4255;48.730;9.156;2023-03-14T11:42:02;11.90;99.90
8436;DHT22;4255;48.730;9.156;2023-03-14T11:44:38;11.90;99.90
8436;DHT22;4255;48.730;9.156;2023-03-14T11:54:52;11.60;99.90
8436;DHT22;4255;48.730;9.156;2023-03-14T11:57:21;11.80;99.90
8436;DHT22;4255;48.730;9.156;2023-03-14T12:02:53;11.80;99.90
8436;DHT22;4255;48.730;9.156;2023-03-14T12:05:45;11.80;99.90
8436;DHT22;4255;48.730;9.156;2023-03-14T12:13:37;11.50;99.90
8436;DHT22;4255;48.730;9.156;2023-03-14T12:16:06;11.30;99.90
8436;DHT22;4255;48.730;9.156;2023-03-14T12:18:37;10.90;99.90
8436;DHT22;4255;48.730;9.156;2023-03-14T12:21:09;10.80;99.90
8436;DHT22;4255;48.730;9.156;2023-03-14T12:23:49;10.70;99.90
8436;DHT22;4255;48.730;9.156;2023-03-14T12:26:24;10.80;99.90
8436;DHT22;4255;48.730;9.156;2023-03-14T12:41:52;10.70;99.90
8436;DHT22;4255;48.730;9.156;2023-03-14T12:44:39;10.60;99.90
8436;DHT22;4255;48.730;9.156;2023-03-14T12:49:53;10.80;99.90
8436;DHT22;4255;48.730;9.156;2023-03-14T12:52:36;11.10;99.90
8436;DHT22;4255;48.730;9.156;2023-03-14T12:55:29;10.90;99.90
8436;DHT22;4255;48.730;9.156;2023-03-14T13:00:56;10.80;99.90
8436;DHT22;4255;48.730;9.156;2023-03-14T13:03:25;10.60;99.90
8436;DHT22;4255;48.730;9.156;2023-03-14T13:05:58;10.40;99.90
8436;DHT22;4255;48.730;9.156;2023-03-14T13:08:42;10.10;99.90
8436;DHT22;4255;48.730;9.156;2023-03-14T13:11:12;10.10;99.90
8436;DHT22;4255;48.730;9.156;2023-03-14T13:13:44;10.20;99.90
8436;DHT22;4255;48.730;9.156;2023-03-14T13:16:19;10.10;99.90
8436;DHT22;4255;48.730;9.156;2023-03-14T13:18:47;10.00;99.90
8436;DHT22;4255;48.730;9.156;2023-03-14T13:24:02;10.20;99.90
8436;DHT22;4255;48.730;9.156;2023-03-14T13:26:40;10.20;99.90
8436;DHT22;4255;48.730;9.156;2023-03-14T13:29:19;10.10;99.90
8436;DHT22;4255;48.730;9.156;2023-03-14T13:31:54;9.80;99.90
8436;DHT22;4255;48.730;9.156;2023-03-14T13:34:25;9.50;99.90
8436;DHT22;4255;48.730;9.156;2023-03-14T13:36:54;9.50;99.90
8436;DHT22;4255;48.730;9.156;2023-03-14T13:39:22;9.60;99.90
8436;DHT22;4255;48.730;9.156;2023-03-14T13:41:50;9.50;99.90
8436;DHT22;4255;48.730;9.156;2023-03-14T13:44:29;9.30;99.90
8436;DHT22;4255;48.730;9.156;2023-03-14T13:47:01;9.10;99.90
8436;DHT22;4255;48.730;9.156;2023-03-14T13:49:29;9.00;99.90
8436;DHT22;4255;48.730;9.156;2023-03-14T13:51:58;9.00;99.90
8436;DHT22;4255;48.730;9.156;2023-03-14T13:54:26;8.80;99.90
8436;DHT22;4255;48.730;9.156;2023-03-14T13:57:05;8.80;99.90
8436;DHT22;4255;48.730;9.156;2023-03-14T13:59:34;8.90;99.90
8436;DHT22;4255;48.730;9.156;2023-03-14T14:02:04;9.00;99.90
8436;DHT22;4255;48.730;9.156;2023-03-14T14:04:35;8.90;99.90
8436;DHT22;4255;48.730;9.156;2023-03-14T14:07:07;8.80;99.90
8436;DHT22;4255;48.730;9.156;2023-03-14T14:09:40;8.80;99.90
8436;DHT22;4255;48.730;9.156;2023-03-14T14:12:34;8.80;99.90
8436;DHT22;4255;48.730;9.156;2023-03-14T14:15:31;8.90;99.90
8436;DHT22;4255;48.730;9.156;2023-03-14T14:18:05;8.70;99.90
8436;DHT22;4255;48.730;9.156;2023-03-14T14:23:01;8.70;99.90
8436;DHT22;4255;48.730;9.156;2023-03-14T14:25:28;8.90;99.90
8436;DHT22;4255;48.730;9.156;2023-03-14T14:27:54;8.60;99.90
8436;DHT22;4255;48.730;9.156;2023-03-14T14:32:47;8.70;99.90
8436;DHT22;4255;48.730;9.156;2023-03-14T14:35:33;8.80;99.90
8436;DHT22;4255;48.730;9.156;2023-03-14T14:37:59;8.80;99.90
8436;DHT22;4255;48.730;9.156;2023-03-14T14:40:29;8.70;99.90
8436;DHT22;4255;48.730;9.156;2023-03-14T14:43:03;8.70;99.90
8436;DHT22;4255;48.730;9.156;2023-03-14T14:45:29;8.70;99.90
8436;DHT22;4255;48.730;9.156;2023-03-14T14:48:02;8.60;99.90
8436;DHT22;4255;48.730;9.156;2023-03-14T14:50:48;8.60;99.90
8436;DHT22;4255;48.730;9.156;2023-03-14T14:53:44;8.70;99.90
8436;DHT22;4255;48.730;9.156;2023-03-14T14:58:45;8.80;99.90
8436;DHT22;4255;48.730;9.156;2023-03-14T15:01:17;8.80;99.90
8436;DHT22;4255;48.730;9.156;2023-03-14T15:03:44;8.90;99.90
8436;DHT22;4255;48.730;9.156;2023-03-14T15:06:14;8.90;99.90
8436;DHT22;4255;48.730;9.156;2023-03-14T15:08:42;9.00;99.90
8436;DHT22;4255;48.730;9.156;2023-03-14T15:11:16;8.90;99.90
8436;DHT22;4255;48.730;9.156;2023-03-14T15:13:43;9.10;99.90
8436;DHT22;4255;48.730;9.156;2023-03-14T15:16:11;9.10;99.90
8436;DHT22;4255;48.730;9.156;2023-03-14T15:18:37;9.10;99.90
8436;DHT22;4255;48.730;9.156;2023-03-14T15:21:02;9.20;99.90
8436;DHT22;4255;48.730;9.156;2023-03-14T15:23:28;9.20;99.90
8436;DHT22;4255;48.730;9.156;2023-03-14T15:25:54;9.30;99.90
8436;DHT22;4255;48.730;9.156;2023-03-14T15:28:27;9.20;99.90
8436;DHT22;4255;48.730;9.156;2023-03-14T15:30:57;9.40;99.90
8436;DHT22;4255;48.730;9.156;2023-03-14T15:33:27;9.30;99.90
8436;DHT22;4255;48.730;9.156;2023-03-14T15:35:53;9.10;99.90
8436;DHT22;4255;48.730;9.156;2023-03-14T15:38:20;8.90;99.90
8436;DHT22;4255;48.730;9.156;2023-03-14T15:40:51;9.10;99.90
8436;DHT22;4255;48.730;9.156;2023-03-14T15:43:17;9.10;99.90
8436;DHT22;4255;48.730;9.156;2023-03-14T15:45:43;9.00;99.90
8436;DHT22;4255;48.730;9.156;2023-03-14T15:48:17;9.00;99.90
8436;DHT22;4255;48.730;9.156;2023-03-14T15:50:44;9.00;99.90
8436;DHT22;4255;48.730;9.156;2023-03-14T15:53:10;8.90;99.90
8436;DHT22;4255;48.730;9.156;2023-03-14T15:55:36;8.80;99.90
8436;DHT22;4255;48.730;9.156;2023-03-14T15:58:01;8.90;99.90
8436;DHT22;4255;48.730;9.156;2023-03-14T16:00:28;9.00;99.90
8436;DHT22;4255;48.730;9.156;2023-03-14T16:02:54;9.10;99.90
8436;DHT22;4255;48.730;9.156;2023-03-14T16:05:19;9.10;99.90
8436;DHT22;4255;48.730;9.156;2023-03-14T16:07:45;8.80;99.90
8436;DHT22;4255;48.730;9.156;2023-03-14T16:10:11;8.80;99.90
8436;DHT22;4255;48.730;9.156;2023-03-14T16:12:38;8.50;99.90
8436;DHT22;4255;48.730;9.156;2023-03-14T16:15:04;8.70;99.90
8436;DHT22;4255;48.730;9.156;2023-03-14T16:17:29;8.80;99.90
8436;DHT22;4255;48.730;9.156;2023-03-14T16:19:55;8.80;99.90
8436;DHT22;4255;48.730;9.156;2023-03-14T16:22:21;8.80;99.90
8436;DHT22;4255;48.730;9.156;2023-03-14T16:24:46;8.70;99.90
8436;DHT22;4255;48.730;9.156;2023-03-14T16:27:12;8.80;99.90
8436;DHT22;4255;48.730;9.156;2023-03-14T16:29:38;8.80;99.90
8436;DHT22;4255;48.730;9.156;2023-03-14T16:32:04;8.90;99.90
8436;DHT22;4255;48.730;9.156;2023-03-14T16:34:29;8.70;99.90
8436;DHT22;4255;48.730;9.156;2023-03-14T16:36:56;8.70;99.90
8436;DHT22;4255;48.730;9.156;2023-03-14T16:39:21;8.70;99.90
8436;DHT22;4255;48.730;9.156;2023-03-14T16:41:47;8.80;99.90
8436;DHT22;4255;48.730;9.156;2023-03-14T16:44:12;8.60;99.90
8436;DHT22;4255;48.730;9.156;2023-03-14T16:46:38;8.60;99.90
8436;DHT22;4255;48.730;9.156;2023-03-14T16:49:04;8.70;99.90
8436;DHT22;4255;48.730;9.156;2023-03-14T16:51:31;8.70;99.90
8436;DHT22;4255;48.730;9.156;2023-03-14T16:53:56;8.70;99.90
8436;DHT22;4255;48.730;9.156;2023-03-14T16:56:22;8.70;99.90
8436;DHT22;4255;48.730;9.156;2023-03-14T16:58:49;8.80;99.90
8436;DHT22;4255;48.730;9.156;2023-03-14T17:01:16;9.00;99.90
8436;DHT22;4255;48.730;9.156;2023-03-14T17:03:44;9.30;99.90
8436;DHT22;4255;48.730;9.156;2023-03-14T17:06:12;9.30;99.90
8436;DHT22;4255;48.730;9.156;2023-03-14T17:08:38;9.00;99.90
8436;DHT22;4255;48.730;9.156;2023-03-14T17:11:04;8.80;99.90
8436;DHT22;4255;48.730;9.156;2023-03-14T17:13:29;8.90;99.90
8436;DHT22;4255;48.730;9.156;2023-03-14T17:15:57;8.80;99.90
8436;DHT22;4255;48.730;9.156;2023-03-14T17:18:24;9.00;99.90
8436;DHT22;4255;48.730;9.156;2023-03-14T17:20:55;8.80;99.90
8436;DHT22;4255;48.730;9.156;2023-03-14T17:23:22;8.60;99.90
8436;DHT22;4255;48.730;9.156;2023-03-14T17:25:49;8.60;99.90
8436;DHT22;4255;48.730;9.156;2023-03-14T17:28:16;8.50;99.90
8436;DHT22;4255;48.730;9.156;2023-03-14T17:30:43;8.40;99.90
8436;DHT22;4255;48.730;9.156;2023-03-14T17:33:09;8.30;99.90